Fas Dammam — V2GJ9 — position and weather

sailwx.info

Track history (hours):
 
Tides and Currents Weather Stations Pressure Air Temp Water Temp Dewpoint Dewpoint Depression Visibility Wind Speed Wind Dir Waves Ship Positions

Fas Dammam

Last reported at 2018-Feb-23 13:34 UTC. Time now 2018-Feb-23 16:52 UTC.
Position N 43°21' E 005°18'.

Length 132 m; draft 7 m.

Type: Ship (hazmat cat B). MMSI: 304010804.

Date/timePositionNaut miles runAvg speedWind from/ knotsBaromVisibWave heightAir tempDewpointWater temp
2018-Feb-23 13:34N 43°21' E 005°18'3 8.9
2018-Feb-23 13:12N 43°19' E 005°15'211.5
2018-Feb-23 13:00N 43°17' E 005°12'612.0
2018-Feb-23 12:30N 43°11' E 005°11'10 1.9
2018-Feb-23 07:18N 43°02' E 005°12'8011.0
2018-Feb-22 23:58N 43°08' E 007°01'612.4
2018-Feb-22 23:30N 43°12' E 007°08'612.2
2018-Feb-22 23:00N 43°16' E 007°14'612.2
2018-Feb-22 22:31N 43°19' E 007°21'5412.9
2018-Feb-22 18:18N 43°53' E 008°19'413.0
2018-Feb-22 18:00N 43°56' E 008°23'613.0
2018-Feb-22 17:31N 44°00' E 008°30'612.5
2018-Feb-22 17:01N 44°05' E 008°36'612.4
2018-Feb-22 16:31N 44°09' E 008°42'612.5
2018-Feb-22 16:01N 44°14' E 008°48'612.5
2018-Feb-22 15:31N 44°18' E 008°54'510.5
2018-Feb-22 15:01N 44°23' E 008°56'2 3.6
2018-Feb-22 14:26N 44°24' E 008°54'0 0.0
2018-Feb-22 13:56N 44°24' E 008°54'0 0.0
2018-Feb-22 13:29N 44°24' E 008°54'0 0.0
2018-Feb-22 12:59N 44°24' E 008°54'0 0.0
2018-Feb-22 12:29N 44°24' E 008°54'0 0.0
2018-Feb-22 11:59N 44°24' E 008°54'0 0.0
2018-Feb-22 11:29N 44°24' E 008°54'0 0.0
2018-Feb-22 10:59N 44°24' E 008°54'0 0.0
2018-Feb-22 10:29N 44°24' E 008°54'0 0.0
2018-Feb-22 09:59N 44°24' E 008°54'0 0.0
2018-Feb-22 09:29N 44°24' E 008°54'0 0.0
2018-Feb-22 08:59N 44°24' E 008°54'0 0.0
2018-Feb-22 08:29N 44°24' E 008°54'0 0.0
2018-Feb-22 07:59N 44°24' E 008°54'0 0.0
2018-Feb-22 07:29N 44°24' E 008°54'0 0.0
2018-Feb-22 06:59N 44°24' E 008°54'0 0.0
2018-Feb-22 06:29N 44°24' E 008°54'0 0.0
2018-Feb-22 05:59N 44°24' E 008°54'0 0.0
2018-Feb-22 05:31N 44°24' E 008°54'2 4.0
2018-Feb-22 05:01N 44°23' E 008°57'2 3.9
2018-Feb-22 04:31N 44°22' E 008°58'2 3.3
2018-Feb-22 03:59N 44°21' E 009°01'0 0.2
2018-Feb-22 03:29N 44°21' E 009°01'0 0.0
2018-Feb-22 02:59N 44°21' E 009°01'0 0.1
2018-Feb-22 02:26N 44°21' E 009°01'0 0.0
2018-Feb-22 01:59N 44°21' E 009°01'0 0.0
2018-Feb-22 01:29N 44°21' E 009°01'0 0.1
2018-Feb-22 00:59N 44°21' E 009°01'0 0.1
2018-Feb-22 00:29N 44°21' E 009°01'0 0.0
2018-Feb-21 23:59N 44°21' E 009°01'0 0.1
2018-Feb-21 23:29N 44°21' E 009°01'0 0.0
2018-Feb-21 22:59N 44°21' E 009°01'0 0.1
2018-Feb-21 22:29N 44°21' E 009°01'0 0.0
2018-Feb-21 21:59N 44°21' E 009°01'0 0.0
2018-Feb-21 21:29N 44°21' E 009°01'0 0.0
2018-Feb-21 20:59N 44°21' E 009°01'0 0.1
2018-Feb-21 20:26N 44°21' E 009°01'0 0.1
2018-Feb-21 19:59N 44°21' E 009°01'0 0.0
2018-Feb-21 19:29N 44°21' E 009°01'0 0.1
2018-Feb-21 18:59N 44°21' E 009°01'0 0.1
2018-Feb-21 18:29N 44°21' E 009°01'0 0.0
2018-Feb-21 17:59N 44°21' E 009°01'0 0.1
2018-Feb-21 17:29N 44°21' E 009°01'0 0.1
2018-Feb-21 16:59N 44°21' E 009°01'0 0.1
2018-Feb-21 16:29N 44°21' E 009°01'0 1.0
2018-Feb-21 16:00N 44°21' E 009°01'511.0
2018-Feb-21 15:31N 44°17' E 009°06'612.4
2018-Feb-21 15:00N 44°13' E 009°14'612.5
2018-Feb-21 14:31N 44°10' E 009°21'612.4
2018-Feb-21 14:00N 44°07' E 009°28'612.4
2018-Feb-21 13:30N 44°04' E 009°36'612.9
2018-Feb-21 13:00N 44°00' E 009°43'612.5
2018-Feb-21 12:30N 44°00' E 009°52'611.5
2018-Feb-21 12:00N 44°06' E 009°51'1 1.3
2018-Feb-21 11:29N 44°07' E 009°51'0 0.0
2018-Feb-21 10:59N 44°07' E 009°51'0 0.0
2018-Feb-21 10:29N 44°07' E 009°51'0 0.0
2018-Feb-21 09:59N 44°07' E 009°51'0 0.0
2018-Feb-21 09:29N 44°07' E 009°51'0 0.0
2018-Feb-21 08:59N 44°07' E 009°51'0 0.0
2018-Feb-21 08:29N 44°07' E 009°51'0 0.0
2018-Feb-21 07:59N 44°07' E 009°51'0 0.0
2018-Feb-21 07:29N 44°07' E 009°51'0 0.0
2018-Feb-21 06:59N 44°07' E 009°51'0 0.0
2018-Feb-21 06:29N 44°07' E 009°51'0 0.0
2018-Feb-21 05:59N 44°07' E 009°51'0 0.0
2018-Feb-21 05:30N 44°07' E 009°51'2 3.2
2018-Feb-21 05:00N 44°05' E 009°51'5 9.7
2018-Feb-21 04:31N 44°01' E 009°55'5 9.6
2018-Feb-21 04:00N 43°57' E 009°53'5 9.6
2018-Feb-21 03:30N 43°52' E 009°50'510.3
2018-Feb-21 03:01N 43°47' E 009°49'510.6
2018-Feb-21 02:30N 43°42' E 009°47'510.4
2018-Feb-21 02:00N 43°37' E 009°46'510.3
2018-Feb-21 01:30N 43°32' E 009°45'510.2
2018-Feb-21 01:00N 43°27' E 009°44'510.2
2018-Feb-21 00:30N 43°22' E 009°42'510.3
2018-Feb-20 23:59N 43°17' E 009°40'510.8
2018-Feb-20 23:31N 43°12' E 009°39'510.4
2018-Feb-20 23:00N 43°07' E 009°37'  
2018-Feb-15 19:51N 36°04' E 013°44'3 8.5
2018-Feb-15 19:29N 36°02' E 013°46'5 7.8
2018-Feb-15 18:47N 35°57' E 013°51'5 7.1
2018-Feb-15 18:04N 35°54' E 013°55'1 7.2
2018-Feb-15 17:58N 35°54' E 013°56'4 7.9
2018-Feb-15 17:29N 35°51' E 013°60'4 7.6
2018-Feb-15 17:00N 35°49' E 014°03'4 7.6
2018-Feb-15 16:30N 35°48' E 014°08'4 7.5
2018-Feb-15 16:00N 35°47' E 014°12'4 7.6
2018-Feb-15 15:30N 35°46' E 014°17'4 8.0
2018-Feb-15 14:59N 35°45' E 014°22'810.2
2018-Feb-15 14:15N 35°45' E 014°31'411.0
2018-Feb-15 13:54N 35°49' E 014°33'1 0.3
2018-Feb-15 10:58N 35°49' E 014°32'0 0.0
2018-Feb-15 07:25N 35°49' E 014°32'0 0.0
2018-Feb-14 23:19N 35°49' E 014°32'0 0.0
2018-Feb-14 22:57N 35°49' E 014°32'1 3.0
2018-Feb-14 22:29N 35°49' E 014°34'4 3.7
2018-Feb-14 21:26N 35°48' E 014°39'410.1
2018-Feb-14 21:00N 35°51' E 014°43'1 2.0
2018-Feb-14 20:29N 35°51' E 014°44'0 0.1
2018-Feb-14 19:59N 35°51' E 014°44'0 0.0
2018-Feb-14 19:23N 35°51' E 014°44'0 0.0
2018-Feb-14 17:44N 35°51' E 014°44'0 0.1
2018-Feb-14 15:26N 35°51' E 014°44'0 0.0
2018-Feb-14 14:56N 35°51' E 014°44'0 0.0
2018-Feb-14 14:14N 35°51' E 014°44'0 0.2
2018-Feb-14 13:53N 35°51' E 014°44'0 0.0
2018-Feb-14 13:20N 35°51' E 014°44'0 0.0
2018-Feb-14 12:53N 35°51' E 014°44'0 0.0
2018-Feb-14 12:29N 35°51' E 014°44'0 0.1
2018-Feb-14 11:59N 35°51' E 014°44'0 0.0
2018-Feb-14 11:14N 35°51' E 014°44'0 0.0
2018-Feb-14 10:59N 35°51' E 014°44'0 0.0
2018-Feb-14 06:56N 35°51' E 014°44'0 0.0
2018-Feb-14 05:35N 35°51' E 014°44'0 0.0
2018-Feb-14 05:29N 35°51' E 014°44'0 0.0
2018-Feb-14 04:26N 35°51' E 014°44'0 0.0
2018-Feb-14 03:41N 35°51' E 014°44'0 0.1
2018-Feb-14 03:23N 35°51' E 014°44'0 0.0
2018-Feb-14 02:53N 35°51' E 014°44'0 0.0
2018-Feb-14 02:11N 35°51' E 014°44'0 0.0
2018-Feb-14 01:59N 35°51' E 014°44'0 0.0
2018-Feb-14 01:26N 35°51' E 014°44'0 0.0
2018-Feb-14 00:59N 35°51' E 014°44'0 0.0
2018-Feb-14 00:29N 35°51' E 014°44'0 0.0
2018-Feb-13 23:59N 35°51' E 014°44'0 0.0
2018-Feb-13 23:20N 35°51' E 014°44'0 0.0
2018-Feb-13 22:56N 35°51' E 014°44'0 0.0
2018-Feb-13 22:29N 35°51' E 014°44'0 0.0
2018-Feb-13 21:50N 35°51' E 014°44'0 0.0
2018-Feb-13 21:26N 35°51' E 014°44'0 0.0
2018-Feb-13 20:53N 35°51' E 014°44'0 0.0
2018-Feb-13 20:29N 35°51' E 014°44'0 0.0
2018-Feb-13 19:59N 35°51' E 014°44'0 0.0
2018-Feb-13 19:29N 35°51' E 014°44'0 0.0
2018-Feb-13 18:41N 35°51' E 014°44'0 0.1
2018-Feb-13 18:23N 35°51' E 014°44'0 0.0
2018-Feb-13 17:53N 35°51' E 014°44'0 0.0
2018-Feb-13 17:26N 35°51' E 014°44'0 0.0
2018-Feb-13 16:50N 35°51' E 014°44'0 0.0
2018-Feb-13 16:26N 35°51' E 014°44'0 0.0
2018-Feb-13 15:59N 35°51' E 014°44'0 0.0
2018-Feb-13 15:26N 35°51' E 014°44'0 0.0
2018-Feb-13 14:44N 35°51' E 014°44'0 0.0
2018-Feb-13 14:26N 35°51' E 014°44'0 0.0
2018-Feb-13 13:59N 35°51' E 014°44'  
Track history (hours):
 
Tides and Currents Weather Stations Pressure Air Temp Water Temp Dewpoint Dewpoint Depression Visibility Wind Speed Wind Dir Waves Ship Positions

Fas Dammam

Last reported at 2018-Feb-23 13:34 UTC. Time now 2018-Feb-23 16:52 UTC.
Position N 43°21' E 005°18'.

Length 132 m; draft 7 m.

Type: Ship (hazmat cat B). MMSI: 304010804.

Date/timePositionNaut miles runAvg speedWind from/ knotsBaromVisibWave heightAir tempDewpointWater temp
2018-Feb-23 13:34N 43°21' E 005°18'3 8.9
2018-Feb-23 13:12N 43°19' E 005°15'211.5
2018-Feb-23 13:00N 43°17' E 005°12'612.0
2018-Feb-23 12:30N 43°11' E 005°11'10 1.9
2018-Feb-23 07:18N 43°02' E 005°12'8011.0
2018-Feb-22 23:58N 43°08' E 007°01'612.4
2018-Feb-22 23:30N 43°12' E 007°08'612.2
2018-Feb-22 23:00N 43°16' E 007°14'612.2
2018-Feb-22 22:31N 43°19' E 007°21'5412.9
2018-Feb-22 18:18N 43°53' E 008°19'413.0
2018-Feb-22 18:00N 43°56' E 008°23'613.0
2018-Feb-22 17:31N 44°00' E 008°30'612.5
2018-Feb-22 17:01N 44°05' E 008°36'612.4
2018-Feb-22 16:31N 44°09' E 008°42'612.5
2018-Feb-22 16:01N 44°14' E 008°48'612.5
2018-Feb-22 15:31N 44°18' E 008°54'510.5
2018-Feb-22 15:01N 44°23' E 008°56'2 3.6
2018-Feb-22 14:26N 44°24' E 008°54'0 0.0
2018-Feb-22 13:56N 44°24' E 008°54'0 0.0
2018-Feb-22 13:29N 44°24' E 008°54'0 0.0
2018-Feb-22 12:59N 44°24' E 008°54'0 0.0
2018-Feb-22 12:29N 44°24' E 008°54'0 0.0
2018-Feb-22 11:59N 44°24' E 008°54'0 0.0
2018-Feb-22 11:29N 44°24' E 008°54'0 0.0
2018-Feb-22 10:59N 44°24' E 008°54'0 0.0
2018-Feb-22 10:29N 44°24' E 008°54'0 0.0
2018-Feb-22 09:59N 44°24' E 008°54'0 0.0
2018-Feb-22 09:29N 44°24' E 008°54'0 0.0
2018-Feb-22 08:59N 44°24' E 008°54'0 0.0
2018-Feb-22 08:29N 44°24' E 008°54'0 0.0
2018-Feb-22 07:59N 44°24' E 008°54'0 0.0
2018-Feb-22 07:29N 44°24' E 008°54'0 0.0
2018-Feb-22 06:59N 44°24' E 008°54'0 0.0
2018-Feb-22 06:29N 44°24' E 008°54'0 0.0
2018-Feb-22 05:59N 44°24' E 008°54'0 0.0
2018-Feb-22 05:31N 44°24' E 008°54'2 4.0
2018-Feb-22 05:01N 44°23' E 008°57'2 3.9
2018-Feb-22 04:31N 44°22' E 008°58'2 3.3
2018-Feb-22 03:59N 44°21' E 009°01'0 0.2
2018-Feb-22 03:29N 44°21' E 009°01'0 0.0
2018-Feb-22 02:59N 44°21' E 009°01'0 0.1
2018-Feb-22 02:26N 44°21' E 009°01'0 0.0
2018-Feb-22 01:59N 44°21' E 009°01'0 0.0
2018-Feb-22 01:29N 44°21' E 009°01'0 0.1
2018-Feb-22 00:59N 44°21' E 009°01'0 0.1
2018-Feb-22 00:29N 44°21' E 009°01'0 0.0
2018-Feb-21 23:59N 44°21' E 009°01'0 0.1
2018-Feb-21 23:29N 44°21' E 009°01'0 0.0
2018-Feb-21 22:59N 44°21' E 009°01'0 0.1
2018-Feb-21 22:29N 44°21' E 009°01'0 0.0
2018-Feb-21 21:59N 44°21' E 009°01'0 0.0
2018-Feb-21 21:29N 44°21' E 009°01'0 0.0
2018-Feb-21 20:59N 44°21' E 009°01'0 0.1
2018-Feb-21 20:26N 44°21' E 009°01'0 0.1
2018-Feb-21 19:59N 44°21' E 009°01'0 0.0
2018-Feb-21 19:29N 44°21' E 009°01'0 0.1
2018-Feb-21 18:59N 44°21' E 009°01'0 0.1
2018-Feb-21 18:29N 44°21' E 009°01'0 0.0
2018-Feb-21 17:59N 44°21' E 009°01'0 0.1
2018-Feb-21 17:29N 44°21' E 009°01'0 0.1
2018-Feb-21 16:59N 44°21' E 009°01'0 0.1
2018-Feb-21 16:29N 44°21' E 009°01'0 1.0
2018-Feb-21 16:00N 44°21' E 009°01'511.0
2018-Feb-21 15:31N 44°17' E 009°06'612.4
2018-Feb-21 15:00N 44°13' E 009°14'612.5
2018-Feb-21 14:31N 44°10' E 009°21'612.4
2018-Feb-21 14:00N 44°07' E 009°28'612.4
2018-Feb-21 13:30N 44°04' E 009°36'612.9
2018-Feb-21 13:00N 44°00' E 009°43'612.5
2018-Feb-21 12:30N 44°00' E 009°52'611.5
2018-Feb-21 12:00N 44°06' E 009°51'1 1.3
2018-Feb-21 11:29N 44°07' E 009°51'0 0.0
2018-Feb-21 10:59N 44°07' E 009°51'0 0.0
2018-Feb-21 10:29N 44°07' E 009°51'0 0.0
2018-Feb-21 09:59N 44°07' E 009°51'0 0.0
2018-Feb-21 09:29N 44°07' E 009°51'0 0.0
2018-Feb-21 08:59N 44°07' E 009°51'0 0.0
2018-Feb-21 08:29N 44°07' E 009°51'0 0.0
2018-Feb-21 07:59N 44°07' E 009°51'0 0.0
2018-Feb-21 07:29N 44°07' E 009°51'0 0.0
2018-Feb-21 06:59N 44°07' E 009°51'0 0.0
2018-Feb-21 06:29N 44°07' E 009°51'0 0.0
2018-Feb-21 05:59N 44°07' E 009°51'0 0.0
2018-Feb-21 05:30N 44°07' E 009°51'2 3.2
2018-Feb-21 05:00N 44°05' E 009°51'5 9.7
2018-Feb-21 04:31N 44°01' E 009°55'5 9.6
2018-Feb-21 04:00N 43°57' E 009°53'5 9.6
2018-Feb-21 03:30N 43°52' E 009°50'510.3
2018-Feb-21 03:01N 43°47' E 009°49'510.6
2018-Feb-21 02:30N 43°42' E 009°47'510.4
2018-Feb-21 02:00N 43°37' E 009°46'510.3
2018-Feb-21 01:30N 43°32' E 009°45'510.2
2018-Feb-21 01:00N 43°27' E 009°44'510.2
2018-Feb-21 00:30N 43°22' E 009°42'510.3
2018-Feb-20 23:59N 43°17' E 009°40'510.8
2018-Feb-20 23:31N 43°12' E 009°39'510.4
2018-Feb-20 23:00N 43°07' E 009°37'  
2018-Feb-15 19:51N 36°04' E 013°44'3 8.5
2018-Feb-15 19:29N 36°02' E 013°46'5 7.8
2018-Feb-15 18:47N 35°57' E 013°51'5 7.1
2018-Feb-15 18:04N 35°54' E 013°55'1 7.2
2018-Feb-15 17:58N 35°54' E 013°56'4 7.9
2018-Feb-15 17:29N 35°51' E 013°60'4 7.6
2018-Feb-15 17:00N 35°49' E 014°03'4 7.6
2018-Feb-15 16:30N 35°48' E 014°08'4 7.5
2018-Feb-15 16:00N 35°47' E 014°12'4 7.6
2018-Feb-15 15:30N 35°46' E 014°17'4 8.0
2018-Feb-15 14:59N 35°45' E 014°22'810.2
2018-Feb-15 14:15N 35°45' E 014°31'411.0
2018-Feb-15 13:54N 35°49' E 014°33'1 0.3
2018-Feb-15 10:58N 35°49' E 014°32'0 0.0
2018-Feb-15 07:25N 35°49' E 014°32'0 0.0
2018-Feb-14 23:19N 35°49' E 014°32'0 0.0
2018-Feb-14 22:57N 35°49' E 014°32'1 3.0
2018-Feb-14 22:29N 35°49' E 014°34'4 3.7
2018-Feb-14 21:26N 35°48' E 014°39'410.1
2018-Feb-14 21:00N 35°51' E 014°43'1 2.0
2018-Feb-14 20:29N 35°51' E 014°44'0 0.1
2018-Feb-14 19:59N 35°51' E 014°44'0 0.0
2018-Feb-14 19:23N 35°51' E 014°44'0 0.0
2018-Feb-14 17:44N 35°51' E 014°44'0 0.1
2018-Feb-14 15:26N 35°51' E 014°44'0 0.0
2018-Feb-14 14:56N 35°51' E 014°44'0 0.0
2018-Feb-14 14:14N 35°51' E 014°44'0 0.2
2018-Feb-14 13:53N 35°51' E 014°44'0 0.0
2018-Feb-14 13:20N 35°51' E 014°44'0 0.0
2018-Feb-14 12:53N 35°51' E 014°44'0 0.0
2018-Feb-14 12:29N 35°51' E 014°44'0 0.1
2018-Feb-14 11:59N 35°51' E 014°44'0 0.0
2018-Feb-14 11:14N 35°51' E 014°44'0 0.0
2018-Feb-14 10:59N 35°51' E 014°44'0 0.0
2018-Feb-14 06:56N 35°51' E 014°44'0 0.0
2018-Feb-14 05:35N 35°51' E 014°44'0 0.0
2018-Feb-14 05:29N 35°51' E 014°44'0 0.0
2018-Feb-14 04:26N 35°51' E 014°44'0 0.0
2018-Feb-14 03:41N 35°51' E 014°44'0 0.1
2018-Feb-14 03:23N 35°51' E 014°44'0 0.0
2018-Feb-14 02:53N 35°51' E 014°44'0 0.0
2018-Feb-14 02:11N 35°51' E 014°44'0 0.0
2018-Feb-14 01:59N 35°51' E 014°44'0 0.0
2018-Feb-14 01:26N 35°51' E 014°44'0 0.0
2018-Feb-14 00:59N 35°51' E 014°44'0 0.0
2018-Feb-14 00:29N 35°51' E 014°44'0 0.0
2018-Feb-13 23:59N 35°51' E 014°44'0 0.0
2018-Feb-13 23:20N 35°51' E 014°44'0 0.0
2018-Feb-13 22:56N 35°51' E 014°44'0 0.0
2018-Feb-13 22:29N 35°51' E 014°44'0 0.0
2018-Feb-13 21:50N 35°51' E 014°44'0 0.0
2018-Feb-13 21:26N 35°51' E 014°44'0 0.0
2018-Feb-13 20:53N 35°51' E 014°44'0 0.0
2018-Feb-13 20:29N 35°51' E 014°44'0 0.0
2018-Feb-13 19:59N 35°51' E 014°44'0 0.0
2018-Feb-13 19:29N 35°51' E 014°44'0 0.0
2018-Feb-13 18:41N 35°51' E 014°44'0 0.1
2018-Feb-13 18:23N 35°51' E 014°44'0 0.0
2018-Feb-13 17:53N 35°51' E 014°44'0 0.0
2018-Feb-13 17:26N 35°51' E 014°44'0 0.0
2018-Feb-13 16:50N 35°51' E 014°44'0 0.0
2018-Feb-13 16:26N 35°51' E 014°44'0 0.0
2018-Feb-13 15:59N 35°51' E 014°44'0 0.0
2018-Feb-13 15:26N 35°51' E 014°44'0 0.0
2018-Feb-13 14:44N 35°51' E 014°44'0 0.0
2018-Feb-13 14:26N 35°51' E 014°44'0 0.0
2018-Feb-13 13:59N 35°51' E 014°44'  

Dump ship's entire track history